sensor_id;sensor_type;location;lat;lon;timestamp;P1;durP1;ratioP1;P2;durP2;ratioP2
22861;SDS011;11598;50.652;6.172;2022-08-21T00:04:57;7.03;;;2.35;;
22861;SDS011;11598;50.652;6.172;2022-08-21T00:14:58;8.57;;;2.53;;
22861;SDS011;11598;50.652;6.172;2022-08-21T00:24:59;12.52;;;3.33;;
22861;SDS011;11598;50.652;6.172;2022-08-21T00:34:59;7.50;;;2.75;;
22861;SDS011;11598;50.652;6.172;2022-08-21T00:45:00;7.03;;;3.00;;
22861;SDS011;11598;50.652;6.172;2022-08-21T00:55:01;10.52;;;4.40;;
22861;SDS011;11598;50.652;6.172;2022-08-21T01:05:03;9.52;;;5.47;;
22861;SDS011;11598;50.652;6.172;2022-08-21T01:15:05;8.50;;;3.45;;
22861;SDS011;11598;50.652;6.172;2022-08-21T01:25:07;11.88;;;3.75;;
22861;SDS011;11598;50.652;6.172;2022-08-21T01:35:10;8.27;;;3.28;;
22861;SDS011;11598;50.652;6.172;2022-08-21T01:45:12;12.63;;;4.13;;
22861;SDS011;11598;50.652;6.172;2022-08-21T01:55:13;6.95;;;3.25;;
22861;SDS011;11598;50.652;6.172;2022-08-21T02:05:14;8.75;;;3.88;;
22861;SDS011;11598;50.652;6.172;2022-08-21T02:15:15;6.47;;;3.55;;
22861;SDS011;11598;50.652;6.172;2022-08-21T02:25:17;8.45;;;3.10;;
22861;SDS011;11598;50.652;6.172;2022-08-21T02:35:18;8.10;;;2.42;;
22861;SDS011;11598;50.652;6.172;2022-08-21T02:45:19;8.93;;;2.78;;
22861;SDS011;11598;50.652;6.172;2022-08-21T02:55:21;7.97;;;2.72;;
22861;SDS011;11598;50.652;6.172;2022-08-21T03:05:23;9.50;;;2.92;;
22861;SDS011;11598;50.652;6.172;2022-08-21T03:15:25;7.85;;;2.67;;
22861;SDS011;11598;50.652;6.172;2022-08-21T03:25:26;10.02;;;2.72;;
22861;SDS011;11598;50.652;6.172;2022-08-21T03:35:27;8.15;;;3.15;;
22861;SDS011;11598;50.652;6.172;2022-08-21T03:45:27;9.13;;;3.07;;
22861;SDS011;11598;50.652;6.172;2022-08-21T03:55:28;5.65;;;2.50;;
22861;SDS011;11598;50.652;6.172;2022-08-21T04:05:29;9.75;;;2.78;;
22861;SDS011;11598;50.652;6.172;2022-08-21T04:15:30;9.57;;;2.72;;
22861;SDS011;11598;50.652;6.172;2022-08-21T04:25:30;11.32;;;3.20;;
22861;SDS011;11598;50.652;6.172;2022-08-21T04:35:31;9.57;;;3.30;;
22861;SDS011;11598;50.652;6.172;2022-08-21T04:45:36;12.40;;;3.20;;
22861;SDS011;11598;50.652;6.172;2022-08-21T04:55:39;7.18;;;2.78;;
22861;SDS011;11598;50.652;6.172;2022-08-21T05:05:41;6.20;;;2.03;;
22861;SDS011;11598;50.652;6.172;2022-08-21T05:15:43;13.25;;;2.90;;
22861;SDS011;11598;50.652;6.172;2022-08-21T05:25:43;14.80;;;2.80;;
22861;SDS011;11598;50.652;6.172;2022-08-21T05:35:44;11.90;;;2.33;;
22861;SDS011;11598;50.652;6.172;2022-08-21T05:45:44;9.50;;;1.93;;
22861;SDS011;11598;50.652;6.172;2022-08-21T05:55:45;7.10;;;1.35;;
22861;SDS011;11598;50.652;6.172;2022-08-21T06:05:47;6.47;;;1.30;;
22861;SDS011;11598;50.652;6.172;2022-08-21T06:15:48;6.85;;;1.52;;
22861;SDS011;11598;50.652;6.172;2022-08-21T06:25:49;10.05;;;1.60;;
22861;SDS011;11598;50.652;6.172;2022-08-21T06:35:49;6.25;;;1.50;;
22861;SDS011;11598;50.652;6.172;2022-08-21T06:45:50;11.40;;;1.85;;
22861;SDS011;11598;50.652;6.172;2022-08-21T06:55:50;9.10;;;2.10;;
22861;SDS011;11598;50.652;6.172;2022-08-21T07:05:51;8.82;;;1.80;;
22861;SDS011;11598;50.652;6.172;2022-08-21T07:15:52;11.52;;;2.08;;
22861;SDS011;11598;50.652;6.172;2022-08-21T07:25:52;8.05;;;1.48;;
22861;SDS011;11598;50.652;6.172;2022-08-21T07:35:53;10.32;;;2.00;;
22861;SDS011;11598;50.652;6.172;2022-08-21T07:45:54;6.93;;;1.70;;
22861;SDS011;11598;50.652;6.172;2022-08-21T07:55:57;12.00;;;2.10;;
22861;SDS011;11598;50.652;6.172;2022-08-21T08:05:57;10.80;;;1.80;;
22861;SDS011;11598;50.652;6.172;2022-08-21T08:15:58;10.43;;;1.93;;
22861;SDS011;11598;50.652;6.172;2022-08-21T08:25:59;7.55;;;1.63;;
22861;SDS011;11598;50.652;6.172;2022-08-21T08:35:59;8.32;;;1.48;;
22861;SDS011;11598;50.652;6.172;2022-08-21T08:46:01;14.55;;;2.10;;
22861;SDS011;11598;50.652;6.172;2022-08-21T08:56:04;12.13;;;2.13;;
22861;SDS011;11598;50.652;6.172;2022-08-21T09:16:40;9.15;;;1.65;;
22861;SDS011;11598;50.652;6.172;2022-08-21T09:26:54;6.95;;;1.48;;
22861;SDS011;11598;50.652;6.172;2022-08-21T09:37:02;9.30;;;1.65;;
22861;SDS011;11598;50.652;6.172;2022-08-21T09:47:02;7.75;;;1.98;;
22861;SDS011;11598;50.652;6.172;2022-08-21T10:07:29;8.25;;;1.65;;
22861;SDS011;11598;50.652;6.172;2022-08-21T10:17:35;9.02;;;1.85;;
22861;SDS011;11598;50.652;6.172;2022-08-21T10:48:47;10.48;;;2.13;;
22861;SDS011;11598;50.652;6.172;2022-08-21T11:09:02;7.07;;;1.57;;
22861;SDS011;11598;50.652;6.172;2022-08-21T11:20:12;9.57;;;1.90;;
22861;SDS011;11598;50.652;6.172;2022-08-21T11:29:44;5.53;;;1.48;;
22861;SDS011;11598;50.652;6.172;2022-08-21T11:50:27;7.63;;;1.73;;
22861;SDS011;11598;50.652;6.172;2022-08-21T12:00:35;13.27;;;1.48;;
22861;SDS011;11598;50.652;6.172;2022-08-21T12:10:59;7.88;;;1.60;;
22861;SDS011;11598;50.652;6.172;2022-08-21T12:21:19;7.68;;;1.80;;
22861;SDS011;11598;50.652;6.172;2022-08-21T12:31:24;10.23;;;2.20;;
22861;SDS011;11598;50.652;6.172;2022-08-21T12:41:31;5.30;;;1.40;;
22861;SDS011;11598;50.652;6.172;2022-08-21T12:51:46;7.80;;;1.77;;
22861;SDS011;11598;50.652;6.172;2022-08-21T13:02:12;7.07;;;1.60;;
22861;SDS011;11598;50.652;6.172;2022-08-21T13:12:20;7.47;;;1.20;;
22861;SDS011;11598;50.652;6.172;2022-08-21T13:22:23;9.05;;;1.52;;
22861;SDS011;11598;50.652;6.172;2022-08-21T13:32:24;8.00;;;1.38;;
22861;SDS011;11598;50.652;6.172;2022-08-21T13:42:27;6.22;;;1.40;;
22861;SDS011;11598;50.652;6.172;2022-08-21T13:52:27;4.53;;;1.27;;
22861;SDS011;11598;50.652;6.172;2022-08-21T14:02:28;8.77;;;1.35;;
22861;SDS011;11598;50.652;6.172;2022-08-21T14:12:30;7.13;;;1.50;;
22861;SDS011;11598;50.652;6.172;2022-08-21T14:32:41;11.53;;;1.83;;
22861;SDS011;11598;50.652;6.172;2022-08-21T14:42:42;8.80;;;2.10;;
22861;SDS011;11598;50.652;6.172;2022-08-21T14:52:43;6.90;;;1.40;;
22861;SDS011;11598;50.652;6.172;2022-08-21T15:02:45;9.45;;;1.95;;
22861;SDS011;11598;50.652;6.172;2022-08-21T15:12:46;8.57;;;1.92;;
22861;SDS011;11598;50.652;6.172;2022-08-21T15:22:46;8.88;;;1.70;;
22861;SDS011;11598;50.652;6.172;2022-08-21T15:32:47;11.27;;;1.90;;
22861;SDS011;11598;50.652;6.172;2022-08-21T15:42:48;7.82;;;1.60;;
22861;SDS011;11598;50.652;6.172;2022-08-21T15:52:48;7.63;;;1.70;;
22861;SDS011;11598;50.652;6.172;2022-08-21T16:02:52;8.77;;;1.93;;
22861;SDS011;11598;50.652;6.172;2022-08-21T16:13:06;8.98;;;1.70;;
22861;SDS011;11598;50.652;6.172;2022-08-21T16:23:11;9.93;;;1.92;;
22861;SDS011;11598;50.652;6.172;2022-08-21T16:33:19;10.25;;;1.73;;
22861;SDS011;11598;50.652;6.172;2022-08-21T16:43:24;8.48;;;1.75;;
22861;SDS011;11598;50.652;6.172;2022-08-21T16:53:27;7.65;;;1.80;;
22861;SDS011;11598;50.652;6.172;2022-08-21T17:03:29;8.82;;;1.98;;
22861;SDS011;11598;50.652;6.172;2022-08-21T17:13:35;12.57;;;1.80;;
22861;SDS011;11598;50.652;6.172;2022-08-21T17:23:36;9.60;;;1.77;;
22861;SDS011;11598;50.652;6.172;2022-08-21T17:33:41;8.55;;;1.80;;
22861;SDS011;11598;50.652;6.172;2022-08-21T17:43:49;9.32;;;1.50;;
22861;SDS011;11598;50.652;6.172;2022-08-21T17:53:50;7.60;;;1.67;;
22861;SDS011;11598;50.652;6.172;2022-08-21T18:03:50;9.80;;;1.48;;
22861;SDS011;11598;50.652;6.172;2022-08-21T18:13:51;9.85;;;1.58;;
22861;SDS011;11598;50.652;6.172;2022-08-21T18:23:54;9.15;;;1.73;;
22861;SDS011;11598;50.652;6.172;2022-08-21T18:33:54;9.45;;;1.60;;
22861;SDS011;11598;50.652;6.172;2022-08-21T18:43:55;6.82;;;1.38;;
22861;SDS011;11598;50.652;6.172;2022-08-21T18:53:56;5.85;;;1.55;;
22861;SDS011;11598;50.652;6.172;2022-08-21T19:03:56;7.72;;;1.42;;
22861;SDS011;11598;50.652;6.172;2022-08-21T19:13:57;8.88;;;1.70;;
22861;SDS011;11598;50.652;6.172;2022-08-21T19:23:57;6.38;;;1.42;;
22861;SDS011;11598;50.652;6.172;2022-08-21T19:34:03;6.55;;;1.50;;
22861;SDS011;11598;50.652;6.172;2022-08-21T19:44:17;9.85;;;2.00;;
22861;SDS011;11598;50.652;6.172;2022-08-21T19:54:30;8.05;;;1.33;;
22861;SDS011;11598;50.652;6.172;2022-08-21T20:04:32;7.38;;;1.52;;
22861;SDS011;11598;50.652;6.172;2022-08-21T20:14:32;9.77;;;1.73;;
22861;SDS011;11598;50.652;6.172;2022-08-21T20:34:38;7.47;;;1.48;;
22861;SDS011;11598;50.652;6.172;2022-08-21T20:44:39;7.75;;;1.75;;
22861;SDS011;11598;50.652;6.172;2022-08-21T20:54:43;14.43;;;5.88;;
22861;SDS011;11598;50.652;6.172;2022-08-21T21:04:51;14.77;;;7.13;;
22861;SDS011;11598;50.652;6.172;2022-08-21T21:15:00;15.63;;;4.88;;
22861;SDS011;11598;50.652;6.172;2022-08-21T21:25:12;14.00;;;5.35;;
22861;SDS011;11598;50.652;6.172;2022-08-21T21:35:18;12.57;;;4.68;;
22861;SDS011;11598;50.652;6.172;2022-08-21T21:45:26;9.70;;;2.92;;
22861;SDS011;11598;50.652;6.172;2022-08-21T21:55:44;7.00;;;2.00;;
22861;SDS011;11598;50.652;6.172;2022-08-21T22:15:56;4.50;;;1.40;;
22861;SDS011;11598;50.652;6.172;2022-08-21T22:26:01;12.40;;;1.80;;
22861;SDS011;11598;50.652;6.172;2022-08-21T22:36:17;8.45;;;1.23;;
22861;SDS011;11598;50.652;6.172;2022-08-21T22:56:42;6.38;;;1.40;;
22861;SDS011;11598;50.652;6.172;2022-08-21T23:06:49;4.67;;;1.40;;
22861;SDS011;11598;50.652;6.172;2022-08-21T23:16:55;8.50;;;1.60;;
22861;SDS011;11598;50.652;6.172;2022-08-21T23:47:53;6.47;;;1.95;;
22861;SDS011;11598;50.652;6.172;2022-08-21T23:58:09;11.65;;;2.40;;
